createdAt,value
2023-11-16T00:01:13.007Z,3.61
2023-11-16T00:03:39.803Z,3.09
2023-11-16T00:06:06.664Z,3.33
2023-11-16T00:08:33.396Z,3.03
2023-11-16T00:11:00.069Z,3.20
2023-11-16T00:13:26.744Z,3.40
2023-11-16T00:15:53.462Z,3.61
2023-11-16T00:18:20.250Z,3.39
2023-11-16T00:20:47.064Z,3.35
2023-11-16T00:23:13.714Z,3.40
2023-11-16T00:25:40.362Z,3.29
2023-11-16T00:28:07.046Z,3.18
2023-11-16T00:30:33.746Z,3.23
2023-11-16T00:33:00.560Z,3.15
2023-11-16T00:35:27.415Z,2.98
2023-11-16T00:37:54.155Z,2.74
2023-11-16T00:40:20.973Z,2.50
2023-11-16T00:42:47.654Z,2.93
2023-11-16T00:45:14.567Z,2.78
2023-11-16T00:47:41.438Z,2.96
2023-11-16T00:50:08.649Z,2.73
2023-11-16T00:52:35.383Z,2.72
2023-11-16T00:55:02.199Z,2.72
2023-11-16T00:57:28.970Z,2.70
2023-11-16T00:59:55.751Z,2.83
2023-11-16T01:02:22.522Z,2.82
2023-11-16T01:04:49.295Z,2.66
2023-11-16T01:07:16.040Z,2.33
2023-11-16T01:09:42.822Z,2.48
2023-11-16T01:12:09.836Z,2.64
2023-11-16T01:14:36.625Z,2.61
2023-11-16T01:17:03.457Z,2.42
2023-11-16T01:19:30.234Z,2.51
2023-11-16T01:21:56.887Z,2.57
2023-11-16T01:24:23.601Z,2.62
2023-11-16T01:26:50.498Z,2.80
2023-11-16T01:29:17.148Z,2.54
2023-11-16T01:31:43.860Z,2.53
2023-11-16T01:34:10.534Z,2.63
2023-11-16T01:36:38.357Z,2.63
2023-11-16T01:39:05.582Z,2.54
2023-11-16T01:41:32.386Z,2.70
2023-11-16T01:43:59.037Z,2.69
2023-11-16T01:46:26.059Z,2.63
2023-11-16T01:48:55.499Z,2.77
2023-11-16T01:51:25.121Z,2.76
2023-11-16T01:53:58.341Z,2.57
2023-11-16T01:56:31.503Z,2.59
2023-11-16T01:59:02.333Z,2.69
2023-11-16T02:01:31.672Z,2.71
2023-11-16T02:03:58.526Z,2.71
2023-11-16T02:06:25.388Z,2.84
2023-11-16T02:08:52.514Z,2.67
2023-11-16T02:11:19.813Z,2.54
2023-11-16T02:13:46.538Z,2.91
2023-11-16T02:16:13.215Z,2.63
2023-11-16T02:18:39.984Z,2.57
2023-11-16T02:21:06.970Z,2.78
2023-11-16T02:23:34.381Z,2.84
2023-11-16T02:26:01.582Z,2.91
2023-11-16T02:28:28.472Z,2.63
2023-11-16T02:30:55.171Z,2.63
2023-11-16T02:33:21.988Z,2.66
2023-11-16T02:35:49.213Z,2.56
2023-11-16T02:38:15.863Z,2.65
2023-11-16T02:40:43.034Z,2.60
2023-11-16T02:43:10.003Z,2.78
2023-11-16T02:45:36.892Z,2.63
2023-11-16T02:48:04.579Z,2.50
2023-11-16T02:50:31.458Z,2.80
2023-11-16T02:52:58.144Z,2.62
2023-11-16T02:55:25.134Z,2.71
2023-11-16T02:57:53.906Z,2.45
2023-11-16T03:00:20.723Z,2.55
2023-11-16T03:02:47.496Z,2.52
2023-11-16T03:05:15.091Z,2.46
2023-11-16T03:07:42.968Z,2.53
2023-11-16T03:10:10.293Z,2.46
2023-11-16T03:12:37.017Z,2.43
2023-11-16T03:15:04.509Z,2.29
2023-11-16T03:17:31.193Z,2.36
2023-11-16T03:19:57.894Z,2.24
2023-11-16T03:22:24.554Z,2.18
2023-11-16T03:24:51.371Z,2.02
2023-11-16T03:27:18.065Z,1.96
2023-11-16T03:29:45.278Z,2.17
2023-11-16T03:32:13.933Z,2.07
2023-11-16T03:34:40.703Z,2.10
2023-11-16T03:37:07.708Z,2.53
2023-11-16T03:39:34.712Z,2.49
2023-11-16T03:42:02.273Z,2.32
2023-11-16T03:44:28.954Z,2.41
2023-11-16T03:46:56.712Z,2.68
2023-11-16T03:49:24.295Z,2.35
2023-11-16T03:51:51.823Z,2.61
2023-11-16T03:54:18.856Z,2.51
2023-11-16T03:56:46.059Z,2.58
2023-11-16T03:59:12.869Z,2.60
2023-11-16T04:01:39.917Z,2.78
2023-11-16T04:04:06.968Z,2.58
2023-11-16T04:06:33.698Z,2.80
2023-11-16T04:09:00.542Z,2.81
2023-11-16T04:11:27.259Z,2.95
2023-11-16T04:14:14.101Z,2.85
2023-11-16T04:16:40.813Z,2.79
2023-11-16T04:19:07.675Z,2.71
2023-11-16T04:21:34.486Z,2.46
2023-11-16T04:24:01.190Z,2.69
2023-11-16T04:26:28.811Z,2.60
2023-11-16T04:28:55.994Z,2.46
2023-11-16T04:31:23.024Z,2.69
2023-11-16T04:33:49.868Z,2.70
2023-11-16T04:36:18.261Z,2.69
2023-11-16T04:38:48.174Z,2.61
2023-11-16T04:41:17.830Z,2.63
2023-11-16T04:43:44.716Z,2.80
2023-11-16T04:46:12.473Z,3.07
2023-11-16T04:48:42.067Z,2.90
2023-11-16T04:51:08.869Z,2.79
2023-11-16T04:53:35.633Z,2.71
2023-11-16T04:56:02.333Z,2.58
2023-11-16T04:58:29.121Z,2.64
2023-11-16T05:00:55.872Z,3.04
2023-11-16T05:03:22.693Z,2.78
2023-11-16T05:05:49.424Z,2.77
2023-11-16T05:08:16.126Z,2.50
2023-11-16T05:10:43.186Z,2.72
2023-11-16T05:13:09.917Z,2.84
2023-11-16T05:15:37.735Z,2.88
2023-11-16T05:18:05.435Z,3.05
2023-11-16T05:20:32.101Z,3.20
2023-11-16T05:22:58.777Z,3.38
2023-11-16T05:25:25.436Z,3.18
2023-11-16T05:27:52.144Z,3.41
2023-11-16T05:30:19.064Z,3.53
2023-11-16T05:32:45.767Z,3.03
2023-11-16T05:35:12.450Z,3.26
2023-11-16T05:37:39.116Z,3.24
2023-11-16T05:40:06.992Z,3.19
2023-11-16T05:42:34.034Z,3.47
2023-11-16T05:45:00.774Z,3.20
2023-11-16T05:47:27.442Z,3.95
2023-11-16T05:49:54.141Z,4.08
2023-11-16T05:52:20.795Z,3.55
2023-11-16T05:54:47.513Z,3.32
2023-11-16T05:57:14.227Z,3.37
2023-11-16T05:59:41.802Z,3.70
2023-11-16T06:02:08.648Z,4.06
2023-11-16T06:04:35.348Z,3.98
2023-11-16T06:07:02.263Z,3.69
2023-11-16T06:09:28.962Z,4.03
2023-11-16T06:11:55.625Z,4.33
2023-11-16T06:14:26.061Z,4.90
2023-11-16T06:16:57.068Z,5.46
2023-11-16T06:19:23.752Z,4.68
2023-11-16T06:21:50.602Z,4.43
2023-11-16T06:24:17.385Z,3.95
2023-11-16T06:26:45.598Z,4.13
2023-11-16T06:29:12.452Z,3.87
2023-11-16T06:31:39.216Z,3.96
2023-11-16T06:34:05.919Z,4.18
2023-11-16T06:36:32.598Z,3.97
2023-11-16T06:38:59.355Z,3.97
2023-11-16T06:41:26.032Z,3.80
2023-11-16T06:43:52.770Z,4.45
2023-11-16T06:46:19.451Z,4.54
2023-11-16T06:48:46.191Z,4.63
2023-11-16T06:51:12.854Z,4.33
2023-11-16T06:53:39.524Z,3.96
2023-11-16T06:56:06.694Z,4.35
2023-11-16T06:58:33.862Z,4.59
2023-11-16T07:01:00.509Z,4.44
2023-11-16T07:03:27.355Z,4.44
2023-11-16T07:05:54.149Z,4.57
2023-11-16T07:08:21.275Z,4.50
2023-11-16T07:10:48.007Z,4.35
2023-11-16T07:13:14.675Z,4.59
2023-11-16T07:15:47.946Z,4.61
2023-11-16T07:18:14.936Z,4.54
2023-11-16T07:20:41.893Z,4.55
2023-11-16T07:23:08.579Z,4.30
2023-11-16T07:25:35.276Z,4.32
2023-11-16T07:28:02.149Z,4.25
2023-11-16T07:30:28.890Z,4.18
2023-11-16T07:32:57.655Z,4.34
2023-11-16T07:35:24.362Z,4.20
2023-11-16T07:37:51.021Z,4.04
2023-11-16T07:40:19.129Z,3.71
2023-11-16T07:42:46.922Z,3.71
2023-11-16T07:45:13.919Z,3.86
2023-11-16T07:47:41.738Z,3.86
2023-11-16T07:50:10.985Z,4.04
2023-11-16T07:52:40.414Z,3.62
2023-11-16T07:55:07.366Z,3.51
2023-11-16T07:57:34.036Z,3.50
2023-11-16T08:00:00.698Z,3.14
2023-11-16T08:02:27.383Z,3.50
2023-11-16T08:04:54.165Z,3.26
2023-11-16T08:07:20.877Z,3.33
2023-11-16T08:09:47.580Z,3.29
2023-11-16T08:12:14.301Z,3.27
2023-11-16T08:14:40.987Z,3.66
2023-11-16T08:17:07.649Z,4.05
2023-11-16T08:19:34.306Z,4.30
2023-11-16T08:22:01.098Z,3.94
2023-11-16T08:24:28.571Z,3.68
2023-11-16T08:26:55.843Z,3.82
2023-11-16T08:29:22.504Z,3.58
2023-11-16T08:31:49.177Z,3.79
2023-11-16T08:34:15.821Z,3.94
2023-11-16T08:36:42.568Z,4.08
2023-11-16T08:39:09.261Z,4.24
2023-11-16T08:41:36.044Z,4.77
2023-11-16T08:44:02.736Z,4.65
2023-11-16T08:46:29.484Z,4.40
2023-11-16T08:48:56.216Z,4.60
2023-11-16T08:51:22.987Z,4.66
2023-11-16T08:53:50.687Z,4.06
2023-11-16T08:56:23.837Z,3.99
2023-11-16T08:58:57.224Z,3.90
2023-11-16T09:01:24.713Z,3.87
2023-11-16T09:03:51.436Z,3.59
2023-11-16T09:06:18.991Z,3.36
2023-11-16T09:08:51.979Z,3.53
2023-11-16T09:11:19.579Z,3.31
2023-11-16T09:13:46.333Z,3.27
2023-11-16T09:16:13.305Z,3.47
2023-11-16T09:18:40.470Z,3.32
2023-11-16T09:21:08.341Z,3.39
2023-11-16T09:23:35.696Z,3.59
2023-11-16T09:26:02.799Z,4.02
2023-11-16T09:28:29.873Z,3.24
2023-11-16T09:30:57.857Z,3.29
2023-11-16T09:33:24.655Z,3.37
2023-11-16T09:35:51.405Z,3.45
2023-11-16T09:38:18.036Z,3.32
2023-11-16T09:40:44.992Z,3.20
2023-11-16T09:43:11.684Z,3.66
2023-11-16T09:45:39.440Z,3.43
2023-11-16T09:48:07.132Z,3.47
2023-11-16T09:50:33.884Z,3.38
2023-11-16T09:53:00.590Z,3.36
2023-11-16T09:55:28.485Z,3.37
2023-11-16T09:57:57.092Z,3.52
2023-11-16T10:00:23.827Z,3.31
2023-11-16T10:02:50.706Z,3.29
2023-11-16T10:05:22.891Z,3.50
2023-11-16T10:07:50.809Z,3.28
2023-11-16T10:10:17.485Z,3.01
2023-11-16T10:12:50.566Z,2.64
2023-11-16T10:15:18.458Z,2.63
2023-11-16T10:17:45.177Z,2.59
2023-11-16T10:20:12.182Z,2.69
2023-11-16T10:22:38.828Z,2.97
2023-11-16T10:25:06.307Z,2.81
2023-11-16T10:27:34.101Z,2.95
2023-11-16T10:30:01.704Z,2.59
2023-11-16T10:32:28.389Z,2.75
2023-11-16T10:34:55.240Z,2.77
2023-11-16T10:37:23.479Z,2.55
2023-11-16T10:39:52.917Z,2.70
2023-11-16T10:42:20.614Z,2.82
2023-11-16T10:44:51.659Z,2.71
2023-11-16T10:47:19.728Z,2.89
2023-11-16T10:49:46.892Z,2.79
2023-11-16T10:52:16.995Z,2.71
2023-11-16T10:54:49.969Z,2.63
2023-11-16T10:57:17.412Z,2.65
2023-11-16T10:59:45.466Z,2.60
2023-11-16T11:02:12.679Z,2.71
2023-11-16T11:04:39.583Z,2.52
2023-11-16T11:07:09.658Z,2.63
2023-11-16T11:09:48.864Z,2.71
2023-11-16T11:12:15.646Z,3.16
2023-11-16T11:14:44.741Z,2.72
2023-11-16T11:17:17.093Z,2.83
2023-11-16T11:19:57.774Z,2.56
2023-11-16T11:22:28.946Z,2.69
2023-11-16T11:24:56.705Z,2.60
2023-11-16T11:27:23.433Z,2.81
2023-11-16T11:29:50.086Z,2.87
2023-11-16T11:32:26.262Z,3.00
2023-11-16T11:34:53.170Z,2.81
2023-11-16T11:37:19.821Z,2.97
2023-11-16T11:39:48.084Z,2.73
2023-11-16T11:42:15.971Z,2.80
2023-11-16T11:44:54.195Z,3.63
2023-11-16T11:47:22.503Z,2.76
2023-11-16T11:49:51.577Z,3.44
2023-11-16T11:52:18.669Z,2.32
2023-11-16T11:54:45.431Z,2.08
2023-11-16T11:57:12.927Z,2.22
2023-11-16T11:59:39.713Z,2.21
2023-11-16T12:02:09.350Z,2.22
2023-11-16T12:04:38.297Z,2.15
2023-11-16T12:07:10.443Z,1.78
2023-11-16T12:09:38.894Z,1.81
2023-11-16T12:12:06.931Z,1.71
2023-11-16T12:14:54.656Z,1.62
2023-11-16T12:17:21.328Z,1.52
2023-11-16T12:19:48.340Z,1.36
2023-11-16T12:22:15.027Z,1.50
2023-11-16T12:24:42.574Z,1.31
2023-11-16T12:27:15.643Z,1.86
2023-11-16T12:29:54.673Z,1.47
2023-11-16T12:32:22.271Z,1.45
2023-11-16T12:34:49.011Z,1.53
2023-11-16T12:37:15.761Z,1.84
2023-11-16T12:39:42.535Z,1.84
2023-11-16T12:42:10.765Z,1.70
2023-11-16T12:44:37.449Z,1.76
2023-11-16T12:47:04.607Z,1.86
2023-11-16T12:49:31.307Z,1.81
2023-11-16T12:51:58.085Z,2.10
2023-11-16T12:54:24.841Z,1.98
2023-11-16T12:56:51.549Z,2.03
2023-11-16T12:59:18.367Z,2.25
2023-11-16T13:01:45.052Z,2.23
2023-11-16T13:04:11.888Z,2.35
2023-11-16T13:06:39.168Z,2.37
2023-11-16T13:09:06.138Z,2.32
2023-11-16T13:11:32.867Z,2.11
2023-11-16T13:13:59.544Z,2.15
2023-11-16T13:16:26.213Z,2.08
2023-11-16T13:18:52.897Z,2.10
2023-11-16T13:21:19.624Z,2.04
2023-11-16T13:23:46.335Z,2.03
2023-11-16T13:26:14.076Z,2.15
2023-11-16T13:28:40.938Z,2.28
2023-11-16T13:31:07.630Z,2.11
2023-11-16T13:33:34.473Z,2.07
2023-11-16T13:36:01.344Z,2.18
2023-11-16T13:38:28.482Z,2.29
2023-11-16T13:40:55.313Z,2.02
2023-11-16T13:43:22.065Z,1.94
2023-11-16T13:45:51.219Z,1.87
2023-11-16T13:48:17.984Z,2.03
2023-11-16T13:50:44.921Z,1.98
2023-11-16T13:53:11.817Z,1.76
2023-11-16T13:55:38.589Z,1.80
2023-11-16T13:58:05.555Z,1.87
2023-11-16T14:00:32.309Z,1.82
2023-11-16T14:02:59.066Z,1.66
2023-11-16T14:05:25.847Z,1.87
2023-11-16T14:07:52.587Z,1.91
2023-11-16T14:10:24.163Z,1.73
2023-11-16T14:12:52.060Z,1.94
2023-11-16T14:15:19.169Z,2.04
2023-11-16T14:17:45.953Z,1.96
2023-11-16T14:20:12.824Z,1.83
2023-11-16T14:22:39.555Z,1.72
2023-11-16T14:25:08.846Z,1.95
2023-11-16T14:27:38.865Z,1.96
2023-11-16T14:30:06.683Z,1.92
2023-11-16T14:32:33.815Z,1.90
2023-11-16T14:35:13.571Z,1.74
2023-11-16T14:37:44.280Z,1.67
2023-11-16T14:40:11.731Z,1.94
2023-11-16T14:42:38.529Z,1.83
2023-11-16T14:45:05.801Z,1.98
2023-11-16T14:47:39.115Z,1.80
2023-11-16T14:50:08.068Z,1.70
2023-11-16T14:52:34.747Z,1.73
2023-11-16T14:55:01.627Z,1.77
2023-11-16T14:57:28.849Z,1.80
2023-11-16T14:59:55.891Z,1.80
2023-11-16T15:02:22.671Z,1.89
2023-11-16T15:04:49.401Z,1.84
2023-11-16T15:07:16.050Z,2.08
2023-11-16T15:09:42.717Z,1.83
2023-11-16T15:12:09.481Z,1.90
2023-11-16T15:14:36.443Z,1.83
2023-11-16T15:17:04.096Z,1.89
2023-11-16T15:19:31.428Z,2.10
2023-11-16T15:21:58.694Z,1.73
2023-11-16T15:24:25.521Z,1.81
2023-11-16T15:26:52.572Z,1.70
2023-11-16T15:29:19.473Z,1.90
2023-11-16T15:31:46.361Z,2.03
2023-11-16T15:34:14.215Z,2.35
2023-11-16T15:36:41.176Z,2.06
2023-11-16T15:39:08.139Z,1.84
2023-11-16T15:41:34.938Z,1.78
2023-11-16T15:44:04.528Z,1.89
2023-11-16T15:46:31.350Z,1.91
2023-11-16T15:48:59.407Z,1.64
2023-11-16T15:51:27.618Z,1.67
2023-11-16T15:53:56.395Z,2.18
2023-11-16T15:56:24.799Z,2.30
2023-11-16T15:58:52.934Z,1.68
2023-11-16T16:01:20.368Z,1.83
2023-11-16T16:03:47.944Z,1.58
2023-11-16T16:06:18.130Z,1.61
2023-11-16T16:08:46.899Z,1.67
2023-11-16T16:11:13.600Z,1.62
2023-11-16T16:13:45.156Z,11.07
2023-11-16T16:16:11.917Z,9.43
2023-11-16T16:18:38.753Z,5.44
2023-11-16T16:21:09.022Z,3.43
2023-11-16T16:23:35.902Z,2.26
2023-11-16T16:26:02.732Z,1.81
2023-11-16T16:28:29.431Z,1.44
2023-11-16T16:30:56.138Z,2.10
2023-11-16T16:33:22.848Z,1.74
2023-11-16T16:35:52.225Z,1.58
2023-11-16T16:38:19.006Z,1.62
2023-11-16T16:40:45.833Z,1.89
2023-11-16T16:43:12.564Z,1.79
2023-11-16T16:45:43.671Z,1.37
2023-11-16T16:48:11.524Z,1.26
2023-11-16T16:50:38.701Z,1.13
2023-11-16T16:53:05.575Z,1.29
2023-11-16T16:55:32.415Z,1.16
2023-11-16T16:57:59.125Z,1.26
2023-11-16T17:00:30.175Z,1.27
2023-11-16T17:02:57.282Z,1.23
2023-11-16T17:05:25.983Z,1.21
2023-11-16T17:07:52.815Z,1.36
2023-11-16T17:10:19.618Z,1.29
2023-11-16T17:12:46.314Z,1.38
2023-11-16T17:15:13.173Z,1.33
2023-11-16T17:17:40.300Z,1.27
2023-11-16T17:20:07.266Z,1.30
2023-11-16T17:22:33.934Z,1.71
2023-11-16T17:25:00.756Z,1.42
2023-11-16T17:27:27.529Z,1.41
2023-11-16T17:29:55.931Z,1.31
2023-11-16T17:32:22.723Z,1.33
2023-11-16T17:34:49.521Z,1.38
2023-11-16T17:37:16.267Z,1.37
2023-11-16T17:39:42.992Z,1.37
2023-11-16T17:42:09.793Z,1.36
2023-11-16T17:44:36.804Z,1.46
2023-11-16T17:47:03.579Z,1.36
2023-11-16T17:49:30.265Z,1.38
2023-11-16T17:51:56.980Z,1.21
2023-11-16T17:54:23.621Z,1.58
2023-11-16T17:56:50.350Z,1.91
2023-11-16T17:59:17.283Z,1.42
2023-11-16T18:01:44.129Z,1.54
2023-11-16T18:04:11.212Z,1.30
2023-11-16T18:06:39.055Z,1.45
2023-11-16T18:09:05.746Z,1.53
2023-11-16T18:11:34.775Z,1.71
2023-11-16T18:14:05.353Z,2.64
2023-11-16T18:16:32.160Z,1.59
2023-11-16T18:18:59.096Z,1.65
2023-11-16T18:21:25.988Z,1.34
2023-11-16T18:23:52.916Z,1.28
2023-11-16T18:26:20.039Z,1.53
2023-11-16T18:28:46.830Z,1.42
2023-11-16T18:31:13.811Z,1.66
2023-11-16T18:33:40.607Z,1.85
2023-11-16T18:36:08.477Z,1.46
2023-11-16T18:38:35.242Z,1.54
2023-11-16T18:41:02.508Z,1.45
2023-11-16T18:43:30.353Z,1.43
2023-11-16T18:45:57.150Z,1.82
2023-11-16T18:48:24.032Z,1.59
2023-11-16T18:50:50.827Z,4.13
2023-11-16T18:53:17.569Z,1.72
2023-11-16T18:55:44.413Z,1.57
2023-11-16T18:58:11.297Z,1.46
2023-11-16T19:00:38.215Z,1.47
2023-11-16T19:03:12.723Z,3.12
2023-11-16T19:05:40.887Z,2.17
2023-11-16T19:08:07.946Z,1.73
2023-11-16T19:10:37.434Z,1.61
2023-11-16T19:13:04.183Z,3.50
2023-11-16T19:15:31.086Z,13.85
2023-11-16T19:17:57.826Z,4.03
2023-11-16T19:20:24.544Z,4.93
2023-11-16T19:22:52.849Z,3.27
2023-11-16T19:25:20.274Z,1.62
2023-11-16T19:27:47.101Z,1.65
2023-11-16T19:30:14.373Z,1.64
2023-11-16T19:32:44.988Z,1.69
2023-11-16T19:35:11.752Z,1.82
2023-11-16T19:37:38.507Z,1.54
2023-11-16T19:40:05.658Z,1.53
2023-11-16T19:42:32.476Z,1.53
2023-11-16T19:45:21.223Z,1.74
2023-11-16T19:47:47.988Z,1.65
2023-11-16T19:50:15.701Z,1.71
2023-11-16T19:52:42.403Z,1.53
2023-11-16T19:55:09.263Z,1.23
2023-11-16T19:57:36.041Z,1.37
2023-11-16T20:00:03.011Z,1.35
2023-11-16T20:02:29.904Z,1.41
2023-11-16T20:04:57.438Z,1.44
2023-11-16T20:07:24.172Z,1.57
2023-11-16T20:09:51.223Z,1.53
2023-11-16T20:12:19.352Z,1.52
2023-11-16T20:14:49.195Z,1.52
2023-11-16T20:17:15.950Z,1.72
2023-11-16T20:19:42.704Z,1.98
2023-11-16T20:22:09.534Z,2.04
2023-11-16T20:24:42.353Z,1.73
2023-11-16T20:27:09.119Z,1.91
2023-11-16T20:29:36.403Z,1.77
2023-11-16T20:32:03.321Z,1.78
2023-11-16T20:34:30.369Z,1.77
2023-11-16T20:36:57.254Z,1.65
2023-11-16T20:39:27.519Z,1.66
2023-11-16T20:41:57.615Z,1.57
2023-11-16T20:44:24.472Z,1.50
2023-11-16T20:46:51.763Z,1.75
2023-11-16T20:49:18.593Z,1.47
2023-11-16T20:51:45.464Z,1.68
2023-11-16T20:54:12.279Z,1.43
2023-11-16T20:56:39.031Z,1.53
2023-11-16T20:59:06.388Z,1.39
2023-11-16T21:01:38.204Z,1.20
2023-11-16T21:04:05.662Z,1.02
2023-11-16T21:06:33.214Z,0.81
2023-11-16T21:09:00.724Z,1.03
2023-11-16T21:11:27.389Z,1.18
2023-11-16T21:13:54.407Z,1.15
2023-11-16T21:16:21.148Z,1.33
2023-11-16T21:18:48.046Z,1.47
2023-11-16T21:21:15.921Z,1.27
2023-11-16T21:23:42.996Z,1.39
2023-11-16T21:26:10.864Z,1.91
2023-11-16T21:28:38.076Z,1.41
2023-11-16T21:31:05.054Z,1.30
2023-11-16T21:33:31.778Z,1.14
2023-11-16T21:35:58.601Z,1.05
2023-11-16T21:38:25.370Z,1.01
2023-11-16T21:40:54.460Z,0.95
2023-11-16T21:43:21.387Z,1.36
2023-11-16T21:46:19.811Z,1.58
2023-11-16T21:48:46.569Z,1.20
2023-11-16T21:51:13.224Z,0.92
2023-11-16T21:53:45.986Z,1.09
2023-11-16T21:56:12.699Z,1.02
2023-11-16T21:58:39.458Z,1.00
2023-11-16T22:01:06.651Z,1.05
2023-11-16T22:03:33.458Z,1.40
2023-11-16T22:06:00.171Z,1.57
2023-11-16T22:08:26.910Z,1.32
2023-11-16T22:10:53.712Z,0.93
2023-11-16T22:13:20.427Z,1.11
2023-11-16T22:15:49.929Z,0.94
2023-11-16T22:18:22.815Z,0.95
2023-11-16T22:20:52.144Z,1.01
2023-11-16T22:23:20.897Z,0.90
2023-11-16T22:25:48.031Z,0.76
2023-11-16T22:28:17.446Z,0.89
2023-11-16T22:30:44.203Z,1.06
2023-11-16T22:33:18.553Z,0.81
2023-11-16T22:35:45.397Z,0.79
2023-11-16T22:38:12.227Z,1.06
2023-11-16T22:41:05.278Z,0.68
2023-11-16T22:43:34.914Z,0.53
2023-11-16T22:46:04.441Z,0.61
2023-11-16T22:48:34.500Z,0.47
2023-11-16T22:51:07.915Z,0.48
2023-11-16T22:53:39.545Z,0.47
2023-11-16T22:56:12.208Z,0.43
2023-11-16T22:58:41.889Z,0.81
2023-11-16T23:01:11.611Z,1.40
2023-11-16T23:03:44.974Z,0.36
2023-11-16T23:06:20.976Z,0.30
2023-11-16T23:08:53.550Z,0.27
2023-11-16T23:11:20.298Z,0.30
2023-11-16T23:13:50.015Z,0.24
2023-11-16T23:16:19.308Z,0.28
2023-11-16T23:18:50.716Z,0.30
2023-11-16T23:21:30.230Z,0.25
2023-11-16T23:24:09.839Z,0.18
2023-11-16T23:26:36.660Z,0.24
2023-11-16T23:29:03.457Z,0.31
2023-11-16T23:31:30.234Z,0.23
2023-11-16T23:33:58.737Z,0.20
2023-11-16T23:36:29.722Z,0.29
2023-11-16T23:38:56.792Z,0.22
2023-11-16T23:41:23.873Z,0.62
2023-11-16T23:43:50.825Z,0.30
2023-11-16T23:46:17.491Z,0.27
2023-11-16T23:48:44.200Z,0.24
2023-11-16T23:51:16.033Z,0.32
2023-11-16T23:53:48.234Z,0.34
2023-11-16T23:56:14.856Z,0.30
2023-11-16T23:58:41.520Z,0.32
